Terminal Aerodrome Forecast
Issued by NWS

Home | Current Version | Previous Version | Text Only | Print | Product List | Glossary On
Versions: 1 2 3 4 5 6 7 8 9 10 11 12 13 14 15 16 17 18 19 20 21 22 23 24 25 26 27 28
000
FTUS45 KLKN 301200 RRA
TAFELY
TAF
KELY 301210Z 3012/0112 30006KT P6SM SCT030 OVC040
     FM301500 VRB04KT P6SM SKC
     FM302000 25010KT P6SM VCSH BKN080
     FM010400 31008KT P6SM SCT080=

USA.gov is the U.S. government's official web portal to all federal, state and local government web resources and services.